createdAt,value
2022-08-21T00:00:26.066Z,2.00
2022-08-21T00:02:29.594Z,3.00
2022-08-21T00:04:32.333Z,1.40
2022-08-21T00:06:35.890Z,2.00
2022-08-21T00:08:38.360Z,2.00
2022-08-21T00:10:43.347Z,2.00
2022-08-21T00:12:46.566Z,1.80
2022-08-21T00:14:49.544Z,1.50
2022-08-21T00:16:52.731Z,1.50
2022-08-21T00:18:59.859Z,1.75
2022-08-21T00:21:02.482Z,1.60
2022-08-21T00:23:05.299Z,2.00
2022-08-21T00:25:09.455Z,1.50
2022-08-21T00:27:12.059Z,2.00
2022-08-21T00:29:15.599Z,2.40
2022-08-21T00:31:19.354Z,2.00
2022-08-21T00:33:21.994Z,2.00
2022-08-21T00:35:29.037Z,2.00
2022-08-21T00:37:31.512Z,1.00
2022-08-21T00:39:37.940Z,1.75
2022-08-21T00:41:42.825Z,2.00
2022-08-21T00:43:47.033Z,2.40
2022-08-21T00:45:50.874Z,1.80
2022-08-21T00:47:56.093Z,2.00
2022-08-21T00:49:58.767Z,2.00
2022-08-21T00:52:02.585Z,1.00
2022-08-21T00:54:06.708Z,1.60
2022-08-21T00:57:11.744Z,1.50
2022-08-21T00:59:23.443Z,0.67
2022-08-21T01:01:33.120Z,1.00
2022-08-21T01:03:36.558Z,2.00
2022-08-21T01:05:42.795Z,2.00
2022-08-21T01:07:45.882Z,1.00
2022-08-21T01:09:49.583Z,1.40
2022-08-21T01:11:52.647Z,1.60
2022-08-21T01:13:56.593Z,2.00
2022-08-21T01:16:09.768Z,2.00
2022-08-21T01:18:14.255Z,0.50
2022-08-21T01:20:17.595Z,1.00
2022-08-21T01:22:21.365Z,0.50
2022-08-21T01:24:24.574Z,0.40
2022-08-21T01:26:35.619Z,1.00
2022-08-21T01:28:44.950Z,2.00
2022-08-21T01:30:47.575Z,1.00
2022-08-21T01:32:50.698Z,2.00
2022-08-21T01:34:54.759Z,1.00
2022-08-21T01:36:57.667Z,1.00
2022-08-21T01:39:01.262Z,1.00
2022-08-21T01:41:04.031Z,1.75
2022-08-21T01:43:06.775Z,2.00
2022-08-21T01:45:10.023Z,0.00
2022-08-21T01:47:14.731Z,1.50
2022-08-21T01:49:18.401Z,0.75
2022-08-21T01:51:27.680Z,2.25
2022-08-21T01:53:36.716Z,2.00
2022-08-21T01:55:39.263Z,2.00
2022-08-21T01:57:42.522Z,2.00
2022-08-21T01:59:47.758Z,1.75
2022-08-21T02:01:50.522Z,2.50
2022-08-21T02:03:53.040Z,2.00
2022-08-21T02:05:55.858Z,0.50
2022-08-21T02:07:58.778Z,2.00
2022-08-21T02:10:01.270Z,1.20
2022-08-21T02:12:07.228Z,1.00
2022-08-21T02:14:14.740Z,0.60
2022-08-21T02:16:19.267Z,1.00
2022-08-21T02:18:22.398Z,0.60
2022-08-21T02:20:32.854Z,1.50
2022-08-21T02:22:35.529Z,1.50
2022-08-21T02:24:54.621Z,1.00
2022-08-21T02:26:58.005Z,0.60
2022-08-21T02:29:01.221Z,0.40
2022-08-21T02:31:07.254Z,0.80
2022-08-21T02:33:26.440Z,2.25
2022-08-21T02:35:29.291Z,1.00
2022-08-21T02:37:31.954Z,0.50
2022-08-21T02:39:35.640Z,1.00
2022-08-21T02:41:38.802Z,2.00
2022-08-21T02:43:42.644Z,2.60
2022-08-21T02:45:49.782Z,2.00
2022-08-21T02:47:54.973Z,1.20
2022-08-21T02:49:57.603Z,1.50
2022-08-21T02:52:00.400Z,2.80
2022-08-21T02:54:05.155Z,2.00
2022-08-21T02:56:11.957Z,1.60
2022-08-21T02:58:17.206Z,0.80
2022-08-21T03:00:21.691Z,1.00
2022-08-21T03:02:24.296Z,0.80
2022-08-21T03:04:29.370Z,1.00
2022-08-21T03:06:38.946Z,1.00
2022-08-21T03:08:46.297Z,2.00
2022-08-21T03:10:52.498Z,1.00
2022-08-21T03:12:55.572Z,1.00
2022-08-21T03:14:58.813Z,1.00
2022-08-21T03:17:01.596Z,0.75
2022-08-21T03:19:06.354Z,1.00
2022-08-21T03:21:09.012Z,1.00
2022-08-21T03:23:13.364Z,1.00
2022-08-21T03:25:18.818Z,1.00
2022-08-21T03:27:33.165Z,1.75
2022-08-21T03:29:39.416Z,1.00
2022-08-21T03:31:45.304Z,1.00
2022-08-21T03:33:47.853Z,1.00
2022-08-21T03:36:07.695Z,0.60
2022-08-21T03:38:10.239Z,0.80
2022-08-21T03:40:16.434Z,1.60
2022-08-21T03:42:19.195Z,1.00
2022-08-21T03:44:21.810Z,2.00
2022-08-21T03:46:24.752Z,0.20
2022-08-21T03:48:27.491Z,1.80
2022-08-21T03:50:34.702Z,1.00
2022-08-21T03:52:37.631Z,1.00
2022-08-21T03:54:42.809Z,1.00
2022-08-21T03:56:45.379Z,1.00
2022-08-21T03:58:47.906Z,1.80
2022-08-21T04:00:53.722Z,2.00
2022-08-21T04:02:56.242Z,1.00
2022-08-21T04:04:58.687Z,1.00
2022-08-21T04:07:06.637Z,1.00
2022-08-21T04:09:09.297Z,0.50
2022-08-21T04:11:11.852Z,0.80
2022-08-21T04:13:15.687Z,0.40
2022-08-21T04:15:18.435Z,0.00
2022-08-21T04:17:21.003Z,2.00
2022-08-21T04:19:24.314Z,0.00
2022-08-21T04:21:26.898Z,0.50
2022-08-21T04:23:30.778Z,0.40
2022-08-21T04:25:33.373Z,1.00
2022-08-21T04:27:43.527Z,1.25
2022-08-21T04:29:46.078Z,1.00
2022-08-21T04:31:48.653Z,0.40
2022-08-21T04:33:51.944Z,0.60
2022-08-21T04:35:54.607Z,2.80
2022-08-21T04:37:58.015Z,1.00
2022-08-21T04:40:01.079Z,1.00
2022-08-21T04:42:03.723Z,1.00
2022-08-21T04:44:06.258Z,1.00
2022-08-21T04:46:13.778Z,1.00
2022-08-21T04:48:20.870Z,0.25
2022-08-21T04:50:28.772Z,0.80
2022-08-21T04:52:39.575Z,1.00
2022-08-21T04:54:46.297Z,0.75
2022-08-21T04:56:54.697Z,1.20
2022-08-21T04:59:00.838Z,1.00
2022-08-21T05:01:05.130Z,1.00
2022-08-21T05:03:10.601Z,2.00
2022-08-21T05:05:13.199Z,2.00
2022-08-21T05:07:41.676Z,1.00
2022-08-21T05:09:46.408Z,0.67
2022-08-21T05:11:49.878Z,1.00
2022-08-21T05:13:57.159Z,2.00
2022-08-21T05:16:00.129Z,1.80
2022-08-21T05:18:02.779Z,1.50
2022-08-21T05:20:06.027Z,1.00
2022-08-21T05:22:08.766Z,2.00
2022-08-21T05:24:12.485Z,1.00
2022-08-21T05:26:18.219Z,1.00
2022-08-21T05:28:21.350Z,1.00
2022-08-21T05:30:23.845Z,1.00
2022-08-21T05:32:28.926Z,1.00
2022-08-21T05:34:31.682Z,0.50
2022-08-21T05:36:34.127Z,1.00
2022-08-21T05:38:36.726Z,0.40
2022-08-21T05:40:39.273Z,0.75
2022-08-21T05:42:43.397Z,0.25
2022-08-21T05:44:46.047Z,1.00
2022-08-21T05:46:51.275Z,0.60
2022-08-21T05:48:54.388Z,0.00
2022-08-21T05:50:57.586Z,0.00
2022-08-21T05:53:07.085Z,1.00
2022-08-21T05:55:10.329Z,0.20
2022-08-21T05:57:12.826Z,0.80
2022-08-21T05:59:15.358Z,1.00
2022-08-21T06:01:18.049Z,1.00
2022-08-21T06:03:32.366Z,0.00
2022-08-21T06:05:37.283Z,0.00
2022-08-21T06:07:40.092Z,1.00
2022-08-21T06:09:43.328Z,0.40
2022-08-21T06:11:46.016Z,1.00
2022-08-21T06:13:48.559Z,0.00
2022-08-21T06:16:01.356Z,0.40
2022-08-21T06:18:04.367Z,0.00
2022-08-21T06:20:07.732Z,1.00
2022-08-21T06:22:10.559Z,1.00
2022-08-21T06:24:14.252Z,0.00
2022-08-21T06:26:16.990Z,0.20
2022-08-21T06:28:19.735Z,0.00
2022-08-21T06:30:22.583Z,0.00
2022-08-21T06:32:25.100Z,0.00
2022-08-21T06:34:27.855Z,1.00
2022-08-21T06:36:30.378Z,0.00
2022-08-21T06:38:33.068Z,0.20
2022-08-21T06:40:35.816Z,2.00
2022-08-21T06:42:44.796Z,1.00
2022-08-21T06:44:50.602Z,0.40
2022-08-21T06:46:53.542Z,1.00
2022-08-21T06:48:56.994Z,1.00
2022-08-21T06:51:01.799Z,1.20
2022-08-21T06:53:12.411Z,0.60
2022-08-21T06:55:22.433Z,1.00
2022-08-21T06:57:26.765Z,1.00
2022-08-21T06:59:29.363Z,0.60
2022-08-21T07:01:31.988Z,0.60
2022-08-21T07:03:43.541Z,1.00
2022-08-21T07:05:46.090Z,0.00
2022-08-21T07:07:49.270Z,1.00
2022-08-21T07:09:51.987Z,0.00
2022-08-21T07:11:57.108Z,0.00
2022-08-21T07:13:59.770Z,0.00
2022-08-21T07:16:04.289Z,0.00
2022-08-21T07:18:07.567Z,0.00
2022-08-21T07:20:10.443Z,0.50
2022-08-21T07:22:14.226Z,0.00
2022-08-21T07:24:16.789Z,1.00
2022-08-21T07:26:24.225Z,0.60
2022-08-21T07:28:30.579Z,2.00
2022-08-21T07:30:33.384Z,1.00
2022-08-21T07:32:42.835Z,1.00
2022-08-21T07:34:48.514Z,0.40
2022-08-21T07:36:51.893Z,0.00
2022-08-21T07:38:56.516Z,1.40
2022-08-21T07:41:02.855Z,0.40
2022-08-21T07:43:11.718Z,0.00
2022-08-21T07:45:16.817Z,0.00
2022-08-21T07:47:38.685Z,1.00
2022-08-21T07:49:43.189Z,1.00
2022-08-21T07:51:45.866Z,1.00
2022-08-21T07:53:53.936Z,0.00
2022-08-21T07:55:59.865Z,1.00
2022-08-21T07:58:02.626Z,1.75
2022-08-21T08:00:15.359Z,1.00
2022-08-21T08:02:30.218Z,2.00
2022-08-21T08:04:32.893Z,0.00
2022-08-21T08:06:37.557Z,1.00
2022-08-21T08:08:42.550Z,0.75
2022-08-21T08:10:46.598Z,2.00
2022-08-21T08:12:53.064Z,1.00
2022-08-21T08:15:04.212Z,0.00
2022-08-21T08:17:08.663Z,0.60
2022-08-21T08:19:12.798Z,0.50
2022-08-21T08:21:16.357Z,0.40
2022-08-21T08:23:19.089Z,0.60
2022-08-21T08:25:24.608Z,0.00
2022-08-21T08:27:27.944Z,0.00
2022-08-21T08:29:32.059Z,1.40
2022-08-21T08:31:37.127Z,0.00
2022-08-21T08:33:40.032Z,1.00
2022-08-21T08:35:45.857Z,0.00
2022-08-21T08:37:52.617Z,1.25
2022-08-21T08:39:55.501Z,1.00
2022-08-21T08:42:32.163Z,0.20
2022-08-21T08:44:31.288Z,1.00
2022-08-21T08:46:45.402Z,1.00
2022-08-21T08:49:18.900Z,1.00
2022-08-21T08:51:53.293Z,1.25
2022-08-21T08:54:04.444Z,0.00
2022-08-21T08:56:08.428Z,2.00
2022-08-21T08:58:41.209Z,1.75
2022-08-21T09:00:57.494Z,0.25
2022-08-21T09:03:03.578Z,1.75
2022-08-21T09:05:36.546Z,1.00
2022-08-21T09:07:54.072Z,1.00
2022-08-21T09:10:11.699Z,0.20
2022-08-21T09:12:40.634Z,1.25
2022-08-21T09:15:21.562Z,0.60
2022-08-21T09:17:48.815Z,1.00
2022-08-21T09:20:03.246Z,2.00
2022-08-21T09:22:31.386Z,2.50
2022-08-21T09:25:27.547Z,1.00
2022-08-21T09:27:32.507Z,1.75
2022-08-21T09:29:38.838Z,1.80
2022-08-21T09:31:41.281Z,2.60
2022-08-21T09:33:43.768Z,3.00
2022-08-21T09:35:54.106Z,1.25
2022-08-21T09:38:08.760Z,1.80
2022-08-21T09:40:31.562Z,2.00
2022-08-21T09:42:34.291Z,2.00
2022-08-21T09:44:44.398Z,1.20
2022-08-21T09:46:53.661Z,2.00
2022-08-21T09:49:02.401Z,2.40
2022-08-21T09:51:13.029Z,1.40
2022-08-21T09:53:26.731Z,2.00
2022-08-21T09:56:07.659Z,0.00
2022-08-21T09:58:10.738Z,0.75
2022-08-21T10:00:27.472Z,1.00
2022-08-21T10:02:33.300Z,0.60
2022-08-21T10:04:37.298Z,1.20
2022-08-21T10:06:40.247Z,1.00
2022-08-21T10:08:44.579Z,1.00
2022-08-21T10:10:51.028Z,1.00
2022-08-21T10:13:20.707Z,1.00
2022-08-21T10:16:05.430Z,1.00
2022-08-21T10:18:07.830Z,1.00
2022-08-21T10:20:21.943Z,0.40
2022-08-21T10:22:39.166Z,0.25
2022-08-21T10:24:50.346Z,0.00
2022-08-21T10:27:01.177Z,1.00
2022-08-21T10:29:30.039Z,0.20
2022-08-21T10:31:53.475Z,0.60
2022-08-21T10:34:09.059Z,0.00
2022-08-21T10:36:34.909Z,0.75
2022-08-21T10:39:02.578Z,0.00
2022-08-21T10:41:34.310Z,1.00
2022-08-21T10:44:06.451Z,1.25
2022-08-21T10:46:16.813Z,0.00
2022-08-21T10:48:35.800Z,1.25
2022-08-21T10:51:15.410Z,1.00
2022-08-21T10:53:27.071Z,0.80
2022-08-21T10:55:38.168Z,0.00
2022-08-21T10:58:03.596Z,0.00
2022-08-21T11:00:12.351Z,1.00
2022-08-21T11:02:29.269Z,0.00
2022-08-21T11:04:49.469Z,0.00
2022-08-21T11:07:17.784Z,0.00
2022-08-21T11:09:25.581Z,0.40
2022-08-21T11:11:45.111Z,0.00
2022-08-21T11:14:13.009Z,0.00
2022-08-21T11:16:43.026Z,0.00
2022-08-21T11:19:07.043Z,0.00
2022-08-21T11:21:45.833Z,1.00
2022-08-21T11:24:14.121Z,0.60
2022-08-21T11:26:40.038Z,1.00
2022-08-21T11:28:52.075Z,0.00
2022-08-21T11:31:13.543Z,0.00
2022-08-21T11:33:26.097Z,0.00
2022-08-21T11:35:49.769Z,0.00
2022-08-21T11:37:58.336Z,0.00
2022-08-21T11:40:39.543Z,0.00
2022-08-21T11:43:20.186Z,0.00
2022-08-21T11:45:59.495Z,0.00
2022-08-21T11:48:08.918Z,0.00
2022-08-21T11:50:35.856Z,0.00
2022-08-21T11:52:47.052Z,0.00
2022-08-21T11:55:06.519Z,0.00
2022-08-21T11:57:18.418Z,0.00
2022-08-21T11:59:26.925Z,0.00
2022-08-21T12:01:36.907Z,0.00
2022-08-21T12:04:00.981Z,0.00
2022-08-21T12:06:08.439Z,0.00
2022-08-21T12:08:11.151Z,0.00
2022-08-21T12:10:22.115Z,0.00
2022-08-21T12:12:31.974Z,0.00
2022-08-21T12:15:26.105Z,0.00
2022-08-21T12:17:42.142Z,0.00
2022-08-21T12:22:05.120Z,0.00
2022-08-21T12:24:18.939Z,0.00
2022-08-21T12:26:32.127Z,0.00
2022-08-21T12:28:35.472Z,0.00
2022-08-21T12:30:44.927Z,0.00
2022-08-21T12:32:59.773Z,0.00
2022-08-21T12:35:26.600Z,0.00
2022-08-21T12:38:13.499Z,0.00
2022-08-21T12:40:30.983Z,0.00
2022-08-21T12:42:44.825Z,0.00
2022-08-21T12:44:59.887Z,0.00
2022-08-21T12:47:15.491Z,0.00
2022-08-21T12:49:31.711Z,0.00
2022-08-21T12:51:55.952Z,0.00
2022-08-21T12:54:00.519Z,0.00
2022-08-21T12:56:05.383Z,0.00
2022-08-21T13:00:29.816Z,0.00
2022-08-21T13:02:38.279Z,0.00
2022-08-21T13:04:42.894Z,0.20
2022-08-21T13:06:50.077Z,0.00
2022-08-21T13:08:59.821Z,0.00
2022-08-21T13:11:13.376Z,0.00
2022-08-21T13:13:25.024Z,0.00
2022-08-21T13:15:34.260Z,0.00
2022-08-21T13:17:40.319Z,0.00
2022-08-21T13:19:43.555Z,0.00
2022-08-21T13:21:46.429Z,0.00
2022-08-21T13:23:49.440Z,0.00
2022-08-21T13:25:52.363Z,0.00
2022-08-21T13:28:12.584Z,0.00
2022-08-21T13:30:21.591Z,0.00
2022-08-21T13:32:28.726Z,0.00
2022-08-21T13:34:38.189Z,0.00
2022-08-21T13:36:42.986Z,0.00
2022-08-21T13:38:46.673Z,0.00
2022-08-21T13:40:57.628Z,0.00
2022-08-21T13:43:01.486Z,0.00
2022-08-21T13:45:04.403Z,0.00
2022-08-21T13:47:10.281Z,0.00
2022-08-21T13:49:22.011Z,0.00
2022-08-21T13:51:29.156Z,0.00
2022-08-21T13:53:34.760Z,0.00
2022-08-21T13:55:44.396Z,0.00
2022-08-21T13:57:47.452Z,0.00
2022-08-21T13:59:50.071Z,0.00
2022-08-21T14:02:00.378Z,0.00
2022-08-21T14:04:20.537Z,0.00
2022-08-21T14:06:25.704Z,0.00
2022-08-21T14:08:33.679Z,0.00
2022-08-21T14:10:42.356Z,0.00
2022-08-21T14:13:08.953Z,0.00
2022-08-21T14:15:15.550Z,0.00
2022-08-21T14:17:39.357Z,0.00
2022-08-21T14:19:45.229Z,0.00
2022-08-21T14:21:48.050Z,0.00
2022-08-21T14:24:04.327Z,0.00
2022-08-21T14:26:08.348Z,0.00
2022-08-21T14:28:20.876Z,0.00
2022-08-21T14:30:32.819Z,0.00
2022-08-21T14:32:44.703Z,0.00
2022-08-21T14:34:55.140Z,0.00
2022-08-21T14:37:00.772Z,0.00
2022-08-21T14:39:03.322Z,0.00
2022-08-21T14:41:16.983Z,0.00
2022-08-21T14:43:20.542Z,0.00
2022-08-21T14:45:24.923Z,0.00
2022-08-21T14:47:30.109Z,0.00
2022-08-21T14:49:32.848Z,0.00
2022-08-21T14:51:35.378Z,0.00
2022-08-21T14:53:38.464Z,0.00
2022-08-21T14:55:59.807Z,0.00
2022-08-21T14:58:02.453Z,0.00
2022-08-21T15:00:06.401Z,0.00
2022-08-21T15:02:09.872Z,0.00
2022-08-21T15:04:12.466Z,0.00
2022-08-21T15:06:16.053Z,0.00
2022-08-21T15:08:21.424Z,0.00
2022-08-21T15:10:25.209Z,0.00
2022-08-21T15:12:28.055Z,0.00
2022-08-21T15:14:34.111Z,0.00
2022-08-21T15:16:37.297Z,0.00
2022-08-21T15:18:40.128Z,0.00
2022-08-21T15:20:43.260Z,0.00
2022-08-21T15:22:47.564Z,0.00
2022-08-21T15:24:50.723Z,0.00
2022-08-21T15:26:56.247Z,0.00
2022-08-21T15:29:00.708Z,1.00
2022-08-21T15:31:03.694Z,0.20
2022-08-21T15:33:06.276Z,0.00
2022-08-21T15:35:10.224Z,0.00
2022-08-21T15:37:12.687Z,0.00
2022-08-21T15:39:15.322Z,0.00
2022-08-21T15:41:19.709Z,0.00
2022-08-21T15:43:29.905Z,0.00
2022-08-21T15:45:34.403Z,0.00
2022-08-21T15:47:40.174Z,0.00
2022-08-21T15:49:46.398Z,0.00
2022-08-21T15:51:54.910Z,0.00
2022-08-21T15:53:57.578Z,0.00
2022-08-21T15:56:02.949Z,0.00
2022-08-21T15:58:06.519Z,0.00
2022-08-21T16:00:23.106Z,0.00
2022-08-21T16:02:32.756Z,0.00
2022-08-21T16:04:35.351Z,0.00
2022-08-21T16:06:55.233Z,0.00
2022-08-21T16:09:00.658Z,0.00
2022-08-21T16:11:04.763Z,0.00
2022-08-21T16:13:20.299Z,0.00
2022-08-21T16:15:23.465Z,0.00
2022-08-21T16:17:30.588Z,0.00
2022-08-21T16:19:35.965Z,0.00
2022-08-21T16:21:38.552Z,0.00
2022-08-21T16:23:41.657Z,0.00
2022-08-21T16:25:45.044Z,0.00
2022-08-21T16:27:57.292Z,0.00
2022-08-21T16:30:02.555Z,0.00
2022-08-21T16:32:06.692Z,0.00
2022-08-21T16:34:16.131Z,0.00
2022-08-21T16:36:18.913Z,0.00
2022-08-21T16:38:21.822Z,0.00
2022-08-21T16:40:28.489Z,0.00
2022-08-21T16:42:31.025Z,0.00
2022-08-21T16:44:37.277Z,0.00
2022-08-21T16:46:42.095Z,0.00
2022-08-21T16:48:45.335Z,0.00
2022-08-21T16:50:51.071Z,0.00
2022-08-21T16:52:54.557Z,0.00
2022-08-21T16:54:57.553Z,0.00
2022-08-21T16:57:00.887Z,0.75
2022-08-21T16:59:05.366Z,0.00
2022-08-21T17:01:11.904Z,0.00
2022-08-21T17:03:17.280Z,0.00
2022-08-21T17:05:20.314Z,0.00
2022-08-21T17:07:22.938Z,0.00
2022-08-21T17:09:25.562Z,0.00
2022-08-21T17:11:43.808Z,0.00
2022-08-21T17:13:46.625Z,0.00
2022-08-21T17:15:51.036Z,0.75
2022-08-21T17:17:54.085Z,0.00
2022-08-21T17:19:56.680Z,0.00
2022-08-21T17:21:59.379Z,0.00
2022-08-21T17:24:02.062Z,0.00
2022-08-21T17:26:05.127Z,0.00
2022-08-21T17:28:10.835Z,0.00
2022-08-21T17:30:17.751Z,0.00
2022-08-21T17:32:20.687Z,0.00
2022-08-21T17:34:33.214Z,0.00
2022-08-21T17:36:35.715Z,0.00
2022-08-21T17:38:38.441Z,0.00
2022-08-21T17:40:41.420Z,0.00
2022-08-21T17:42:46.487Z,0.00
2022-08-21T17:44:49.380Z,0.00
2022-08-21T17:46:51.996Z,0.00
2022-08-21T17:48:55.843Z,0.00
2022-08-21T17:50:58.391Z,0.00
2022-08-21T17:53:01.113Z,0.00
2022-08-21T17:55:05.716Z,0.00
2022-08-21T17:57:23.602Z,0.00
2022-08-21T17:59:26.916Z,0.00
2022-08-21T18:01:34.726Z,0.00
2022-08-21T18:03:38.393Z,0.00
2022-08-21T18:05:42.938Z,0.00
2022-08-21T18:07:45.822Z,0.00
2022-08-21T18:09:48.706Z,1.00
2022-08-21T18:11:53.285Z,0.00
2022-08-21T18:14:03.839Z,0.00
2022-08-21T18:16:11.640Z,0.00
2022-08-21T18:18:14.362Z,0.50
2022-08-21T18:20:21.927Z,0.60
2022-08-21T18:22:24.403Z,0.50
2022-08-21T18:24:27.611Z,1.00
2022-08-21T18:26:33.155Z,0.40
2022-08-21T18:28:38.581Z,1.00
2022-08-21T18:30:43.036Z,1.00
2022-08-21T18:32:46.574Z,1.00
2022-08-21T18:34:49.787Z,1.80
2022-08-21T18:36:53.971Z,1.00
2022-08-21T18:39:08.596Z,1.00
2022-08-21T18:41:19.196Z,1.75
2022-08-21T18:43:22.766Z,1.20
2022-08-21T18:45:25.411Z,1.20
2022-08-21T18:47:40.721Z,3.00
2022-08-21T18:49:43.287Z,3.25
2022-08-21T18:51:46.334Z,2.00
2022-08-21T18:53:55.587Z,2.80
2022-08-21T18:56:05.210Z,1.00
2022-08-21T18:58:08.739Z,4.00
2022-08-21T19:00:15.539Z,2.60
2022-08-21T19:02:18.092Z,3.00
2022-08-21T19:04:42.953Z,3.25
2022-08-21T19:06:46.122Z,1.40
2022-08-21T19:08:49.230Z,1.20
2022-08-21T19:10:57.772Z,1.40
2022-08-21T19:13:01.561Z,1.00
2022-08-21T19:15:06.498Z,2.00
2022-08-21T19:17:09.554Z,0.00
2022-08-21T19:19:13.129Z,0.75
2022-08-21T19:21:16.571Z,1.00
2022-08-21T19:23:20.988Z,2.00
2022-08-21T19:25:34.493Z,1.60
2022-08-21T19:27:37.953Z,1.50
2022-08-21T19:29:41.819Z,1.60
2022-08-21T19:31:45.843Z,2.00
2022-08-21T19:33:57.588Z,2.00
2022-08-21T19:36:06.213Z,1.00
2022-08-21T19:38:08.786Z,1.00
2022-08-21T19:40:14.604Z,0.50
2022-08-21T19:42:17.830Z,0.75
2022-08-21T19:44:23.422Z,2.00
2022-08-21T19:46:32.299Z,3.00
2022-08-21T19:48:36.894Z,0.20
2022-08-21T19:50:39.969Z,1.40
2022-08-21T19:52:49.033Z,0.60
2022-08-21T19:54:54.264Z,2.00
2022-08-21T19:56:59.520Z,1.00
2022-08-21T19:59:09.273Z,1.00
2022-08-21T20:01:16.553Z,1.60
2022-08-21T20:03:21.316Z,2.00
2022-08-21T20:05:27.041Z,2.00
2022-08-21T20:07:42.334Z,2.00
2022-08-21T20:09:46.278Z,1.00
2022-08-21T20:11:56.426Z,2.00
2022-08-21T20:14:00.899Z,1.50
2022-08-21T20:16:08.352Z,0.40
2022-08-21T20:18:11.583Z,2.00
2022-08-21T20:20:15.262Z,0.40
2022-08-21T20:22:17.976Z,1.00
2022-08-21T20:24:20.562Z,1.00
2022-08-21T20:26:23.794Z,2.00
2022-08-21T20:28:28.516Z,1.00
2022-08-21T20:30:31.686Z,1.00
2022-08-21T20:32:34.882Z,0.60
2022-08-21T20:34:37.503Z,1.00
2022-08-21T20:36:41.479Z,1.00
2022-08-21T20:41:21.048Z,2.00
2022-08-21T20:43:24.407Z,1.25
2022-08-21T20:45:31.038Z,0.50
2022-08-21T20:47:33.767Z,1.20
2022-08-21T20:49:45.870Z,1.00
2022-08-21T20:51:51.662Z,2.00
2022-08-21T20:54:20.204Z,1.20
2022-08-21T20:57:01.555Z,1.80
2022-08-21T20:59:33.479Z,1.00
2022-08-21T21:01:36.552Z,0.40
2022-08-21T21:03:53.288Z,0.75
2022-08-21T21:06:09.254Z,1.00
2022-08-21T21:08:26.176Z,1.00
2022-08-21T21:10:44.856Z,1.00
2022-08-21T21:12:53.396Z,0.40
2022-08-21T21:15:00.240Z,1.00
2022-08-21T21:17:07.170Z,0.40
2022-08-21T21:19:37.084Z,1.00
2022-08-21T21:21:51.303Z,1.00
2022-08-21T21:24:04.727Z,0.00
2022-08-21T21:26:20.458Z,1.00
2022-08-21T21:28:30.732Z,2.00
2022-08-21T21:30:40.058Z,2.00
2022-08-21T21:32:49.760Z,2.00
2022-08-21T21:34:52.537Z,2.00
2022-08-21T21:37:00.551Z,2.00
2022-08-21T21:39:27.378Z,0.40
2022-08-21T21:42:16.112Z,2.00
2022-08-21T21:44:35.478Z,1.40
2022-08-21T21:46:56.602Z,1.25
2022-08-21T21:49:26.595Z,2.60
2022-08-21T21:52:00.468Z,1.00
2022-08-21T21:54:28.093Z,2.00
2022-08-21T21:57:08.046Z,0.50
2022-08-21T21:59:16.565Z,2.00
2022-08-21T22:02:01.365Z,2.25
2022-08-21T22:04:23.441Z,2.00
2022-08-21T22:07:03.835Z,2.00
2022-08-21T22:09:14.852Z,2.00
2022-08-21T22:11:55.398Z,0.60
2022-08-21T22:14:29.178Z,1.25
2022-08-21T22:16:32.741Z,2.00
2022-08-21T22:18:46.007Z,2.00
2022-08-21T22:21:02.859Z,1.40
2022-08-21T22:23:10.311Z,1.00
2022-08-21T22:25:24.106Z,1.00
2022-08-21T22:27:32.773Z,1.00
2022-08-21T22:30:07.907Z,3.00
2022-08-21T22:32:13.195Z,2.00
2022-08-21T22:34:24.675Z,2.00
2022-08-21T22:36:34.231Z,1.80
2022-08-21T22:38:39.481Z,1.60
2022-08-21T22:40:42.149Z,1.50
2022-08-21T22:42:58.480Z,2.00
2022-08-21T22:45:09.429Z,2.80
2022-08-21T22:47:24.394Z,1.00
2022-08-21T22:49:46.669Z,1.00
2022-08-21T22:51:55.356Z,1.50
2022-08-21T22:53:58.773Z,2.00
2022-08-21T22:56:03.651Z,1.60
2022-08-21T22:58:19.736Z,2.75
2022-08-21T23:00:48.615Z,1.00
2022-08-21T23:02:52.277Z,1.00
2022-08-21T23:04:59.976Z,1.50
2022-08-21T23:07:06.075Z,3.00
2022-08-21T23:09:25.334Z,2.00
2022-08-21T23:11:42.743Z,3.00
2022-08-21T23:13:48.239Z,2.00
2022-08-21T23:15:59.802Z,2.75
2022-08-21T23:18:12.365Z,0.80
2022-08-21T23:20:30.444Z,1.40
2022-08-21T23:22:36.094Z,2.40
2022-08-21T23:24:50.501Z,3.00
2022-08-21T23:27:07.971Z,2.75
2022-08-21T23:29:40.747Z,1.20
2022-08-21T23:31:55.065Z,1.00
2022-08-21T23:34:21.638Z,1.50
2022-08-21T23:37:23.086Z,2.75
2022-08-21T23:39:40.565Z,1.50
2022-08-21T23:42:04.120Z,1.00
2022-08-21T23:44:36.006Z,1.60
2022-08-21T23:47:06.883Z,2.00
2022-08-21T23:49:33.020Z,1.00
2022-08-21T23:51:59.115Z,2.00
2022-08-21T23:54:23.926Z,2.25
2022-08-21T23:56:32.728Z,2.40
2022-08-21T23:58:56.271Z,2.00
